sensor_id;sensor_type;location;lat;lon;timestamp;pressure;altitude;pressure_sealevel;temperature;humidity
28701;BME280;15877;52.344;16.790;2023-05-01T00:00:44;101306.01;;;10.45;53.25
28701;BME280;15877;52.344;16.790;2023-05-01T00:03:17;101306.97;;;10.44;53.41
28701;BME280;15877;52.344;16.790;2023-05-01T00:05:50;101306.55;;;10.42;53.88
28701;BME280;15877;52.344;16.790;2023-05-01T00:08:23;101306.41;;;10.40;53.73
28701;BME280;15877;52.344;16.790;2023-05-01T00:10:55;101301.10;;;10.39;53.48
28701;BME280;15877;52.344;16.790;2023-05-01T00:13:28;101300.09;;;10.35;53.58
28701;BME280;15877;52.344;16.790;2023-05-01T00:16:00;101298.73;;;10.30;53.53
28701;BME280;15877;52.344;16.790;2023-05-01T00:18:33;101293.00;;;10.28;53.58
28701;BME280;15877;52.344;16.790;2023-05-01T00:21:05;101292.81;;;10.25;53.84
28701;BME280;15877;52.344;16.790;2023-05-01T00:23:38;101287.54;;;10.19;54.08
28701;BME280;15877;52.344;16.790;2023-05-01T00:26:10;101286.75;;;10.15;54.36
28701;BME280;15877;52.344;16.790;2023-05-01T00:28:43;101282.89;;;10.12;54.79
28701;BME280;15877;52.344;16.790;2023-05-01T00:31:15;101282.19;;;10.08;54.58
28701;BME280;15877;52.344;16.790;2023-05-01T00:33:48;101283.41;;;10.05;54.13
28701;BME280;15877;52.344;16.790;2023-05-01T00:36:20;101285.52;;;10.03;53.90
28701;BME280;15877;52.344;16.790;2023-05-01T00:38:53;101284.31;;;10.00;54.18
28701;BME280;15877;52.344;16.790;2023-05-01T00:41:25;101281.73;;;9.95;54.27
28701;BME280;15877;52.344;16.790;2023-05-01T00:43:57;101284.48;;;9.91;54.55
28701;BME280;15877;52.344;16.790;2023-05-01T00:46:30;101281.24;;;9.90;54.50
28701;BME280;15877;52.344;16.790;2023-05-01T00:49:04;101281.92;;;9.87;54.58
28701;BME280;15877;52.344;16.790;2023-05-01T00:51:36;101281.50;;;9.84;54.83
28701;BME280;15877;52.344;16.790;2023-05-01T00:54:09;101278.41;;;9.80;54.73
28701;BME280;15877;52.344;16.790;2023-05-01T00:56:41;101278.66;;;9.78;54.84
28701;BME280;15877;52.344;16.790;2023-05-01T00:59:14;101273.67;;;9.74;54.85
28701;BME280;15877;52.344;16.790;2023-05-01T01:01:47;101273.00;;;9.69;54.90
28701;BME280;15877;52.344;16.790;2023-05-01T01:04:20;101259.13;;;9.59;55.16
28701;BME280;15877;52.344;16.790;2023-05-01T01:06:57;101263.80;;;9.61;54.97
28701;BME280;15877;52.344;16.790;2023-05-01T01:09:41;101261.46;;;9.58;54.92
28701;BME280;15877;52.344;16.790;2023-05-01T01:12:18;101261.29;;;9.53;54.80
28701;BME280;15877;52.344;16.790;2023-05-01T01:14:57;101258.22;;;9.48;54.94
28701;BME280;15877;52.344;16.790;2023-05-01T01:17:34;101264.08;;;9.46;55.03
28701;BME280;15877;52.344;16.790;2023-05-01T01:20:21;101262.20;;;9.43;54.69
28701;BME280;15877;52.344;16.790;2023-05-01T01:23:03;101260.14;;;9.39;54.64
28701;BME280;15877;52.344;16.790;2023-05-01T01:26:05;101253.96;;;9.35;54.56
28701;BME280;15877;52.344;16.790;2023-05-01T01:32:14;101254.80;;;9.24;54.59
28701;BME280;15877;52.344;16.790;2023-05-01T01:34:54;101249.00;;;9.20;54.68
28701;BME280;15877;52.344;16.790;2023-05-01T01:37:34;101245.97;;;9.15;55.05
28701;BME280;15877;52.344;16.790;2023-05-01T01:40:14;101250.48;;;9.07;55.42
28701;BME280;15877;52.344;16.790;2023-05-01T01:42:53;101249.59;;;9.07;55.41
28701;BME280;15877;52.344;16.790;2023-05-01T01:45:31;101253.63;;;9.05;55.65
28701;BME280;15877;52.344;16.790;2023-05-01T01:48:06;101253.70;;;9.03;55.42
28701;BME280;15877;52.344;16.790;2023-05-01T01:50:41;101253.45;;;9.01;55.50
28701;BME280;15877;52.344;16.790;2023-05-01T01:53:17;101249.67;;;9.00;55.57
28701;BME280;15877;52.344;16.790;2023-05-01T01:55:51;101246.98;;;8.98;55.64
28701;BME280;15877;52.344;16.790;2023-05-01T01:58:27;101247.96;;;8.95;55.67
28701;BME280;15877;52.344;16.790;2023-05-01T02:01:02;101242.49;;;8.91;55.82
28701;BME280;15877;52.344;16.790;2023-05-01T02:03:35;101238.11;;;8.90;55.91
28701;BME280;15877;52.344;16.790;2023-05-01T02:06:11;101244.83;;;8.90;55.85
28701;BME280;15877;52.344;16.790;2023-05-01T02:08:47;101244.30;;;8.86;56.01
28701;BME280;15877;52.344;16.790;2023-05-01T02:11:22;101240.12;;;8.85;56.04
28701;BME280;15877;52.344;16.790;2023-05-01T02:13:56;101242.23;;;8.85;56.12
28701;BME280;15877;52.344;16.790;2023-05-01T02:16:30;101239.45;;;8.82;56.25
28701;BME280;15877;52.344;16.790;2023-05-01T02:19:05;101236.42;;;8.82;56.47
28701;BME280;15877;52.344;16.790;2023-05-01T02:21:39;101237.14;;;8.84;56.43
28701;BME280;15877;52.344;16.790;2023-05-01T02:24:12;101235.59;;;8.85;56.40
28701;BME280;15877;52.344;16.790;2023-05-01T02:26:49;101235.68;;;8.85;56.38
28701;BME280;15877;52.344;16.790;2023-05-01T02:29:24;101234.58;;;8.85;56.68
28701;BME280;15877;52.344;16.790;2023-05-01T02:31:58;101233.73;;;8.86;56.82
28701;BME280;15877;52.344;16.790;2023-05-01T02:34:30;101230.48;;;8.86;56.89
28701;BME280;15877;52.344;16.790;2023-05-01T02:37:04;101233.70;;;8.85;56.87
28701;BME280;15877;52.344;16.790;2023-05-01T02:39:37;101225.45;;;8.86;56.98
28701;BME280;15877;52.344;16.790;2023-05-01T02:42:11;101222.45;;;8.85;56.87
28701;BME280;15877;52.344;16.790;2023-05-01T02:44:49;101210.77;;;8.76;56.61
28701;BME280;15877;52.344;16.790;2023-05-01T02:47:23;101217.79;;;8.85;56.64
28701;BME280;15877;52.344;16.790;2023-05-01T02:49:59;101214.19;;;8.81;56.74
28701;BME280;15877;52.344;16.790;2023-05-01T02:52:35;101213.02;;;8.81;56.60
28701;BME280;15877;52.344;16.790;2023-05-01T02:55:20;101212.65;;;8.80;56.57
28701;BME280;15877;52.344;16.790;2023-05-01T02:57:56;101211.44;;;8.81;56.54
28701;BME280;15877;52.344;16.790;2023-05-01T03:00:28;101205.02;;;8.81;56.38
28701;BME280;15877;52.344;16.790;2023-05-01T03:03:01;101205.27;;;8.79;56.39
28701;BME280;15877;52.344;16.790;2023-05-01T03:05:33;101202.89;;;8.77;56.48
28701;BME280;15877;52.344;16.790;2023-05-01T03:08:06;101201.88;;;8.74;56.43
28701;BME280;15877;52.344;16.790;2023-05-01T03:10:41;101199.50;;;8.72;56.51
28701;BME280;15877;52.344;16.790;2023-05-01T03:13:13;101198.17;;;8.70;56.42
28701;BME280;15877;52.344;16.790;2023-05-01T03:15:46;101192.90;;;8.67;56.35
28701;BME280;15877;52.344;16.790;2023-05-01T03:18:18;101189.70;;;8.66;56.27
28701;BME280;15877;52.344;16.790;2023-05-01T03:20:55;101193.94;;;8.61;56.47
28701;BME280;15877;52.344;16.790;2023-05-01T03:23:28;101187.59;;;8.59;56.39
28701;BME280;15877;52.344;16.790;2023-05-01T03:26:01;101187.29;;;8.56;56.53
28701;BME280;15877;52.344;16.790;2023-05-01T03:28:33;101185.64;;;8.54;56.61
28701;BME280;15877;52.344;16.790;2023-05-01T03:31:06;101187.08;;;8.54;56.64
28701;BME280;15877;52.344;16.790;2023-05-01T03:33:39;101181.13;;;8.54;56.53
28701;BME280;15877;52.344;16.790;2023-05-01T03:36:11;101184.05;;;8.52;56.61
28701;BME280;15877;52.344;16.790;2023-05-01T03:38:44;101181.83;;;8.52;56.92
28701;BME280;15877;52.344;16.790;2023-05-01T03:41:43;101177.40;;;8.50;56.92
28701;BME280;15877;52.344;16.790;2023-05-01T03:44:41;101171.15;;;8.50;56.92
28701;BME280;15877;52.344;16.790;2023-05-01T03:47:14;101172.04;;;8.49;57.16
28701;BME280;15877;52.344;16.790;2023-05-01T03:49:46;101173.63;;;8.47;57.46
28701;BME280;15877;52.344;16.790;2023-05-01T03:52:19;101175.18;;;8.46;57.29
28701;BME280;15877;52.344;16.790;2023-05-01T03:54:52;101178.70;;;8.44;57.43
28701;BME280;15877;52.344;16.790;2023-05-01T03:57:43;101177.33;;;8.45;57.46
28701;BME280;15877;52.344;16.790;2023-05-01T04:00:17;101180.96;;;8.47;57.62
28701;BME280;15877;52.344;16.790;2023-05-01T04:02:50;101184.80;;;8.48;57.61
28701;BME280;15877;52.344;16.790;2023-05-01T04:05:25;101181.83;;;8.46;57.67
28701;BME280;15877;52.344;16.790;2023-05-01T04:08:01;101179.00;;;8.49;57.78
28701;BME280;15877;52.344;16.790;2023-05-01T04:10:34;101175.70;;;8.51;57.84
28701;BME280;15877;52.344;16.790;2023-05-01T04:13:08;101176.26;;;8.51;57.92
28701;BME280;15877;52.344;16.790;2023-05-01T04:15:44;101175.87;;;8.53;58.00
28701;BME280;15877;52.344;16.790;2023-05-01T04:18:17;101174.66;;;8.53;58.32
28701;BME280;15877;52.344;16.790;2023-05-01T04:20:50;101174.73;;;8.57;58.47
28701;BME280;15877;52.344;16.790;2023-05-01T04:23:23;101175.86;;;8.57;58.62
28701;BME280;15877;52.344;16.790;2023-05-01T04:25:56;101175.95;;;8.57;58.65
28701;BME280;15877;52.344;16.790;2023-05-01T04:28:28;101172.78;;;8.59;58.81
28701;BME280;15877;52.344;16.790;2023-05-01T04:31:02;101178.80;;;8.59;58.99
28701;BME280;15877;52.344;16.790;2023-05-01T04:33:34;101175.80;;;8.61;58.92
28701;BME280;15877;52.344;16.790;2023-05-01T04:36:09;101176.86;;;8.62;59.30
28701;BME280;15877;52.344;16.790;2023-05-01T04:38:40;101175.38;;;8.66;59.42
28701;BME280;15877;52.344;16.790;2023-05-01T04:41:12;101173.30;;;8.70;59.63
28701;BME280;15877;52.344;16.790;2023-05-01T04:43:45;101174.75;;;8.74;59.72
28701;BME280;15877;52.344;16.790;2023-05-01T04:46:20;101171.98;;;8.78;59.67
28701;BME280;15877;52.344;16.790;2023-05-01T04:48:53;101160.06;;;8.73;59.95
28701;BME280;15877;52.344;16.790;2023-05-01T04:51:25;101175.92;;;8.86;59.97
28701;BME280;15877;52.344;16.790;2023-05-01T04:53:59;101176.71;;;8.90;59.56
28701;BME280;15877;52.344;16.790;2023-05-01T04:56:31;101175.02;;;8.92;59.91
28701;BME280;15877;52.344;16.790;2023-05-01T04:59:04;101175.00;;;8.94;59.42
28701;BME280;15877;52.344;16.790;2023-05-01T05:01:36;101176.50;;;9.00;59.46
28701;BME280;15877;52.344;16.790;2023-05-01T05:04:09;101178.68;;;9.05;59.75
28701;BME280;15877;52.344;16.790;2023-05-01T05:06:43;101172.72;;;9.08;59.85
28701;BME280;15877;52.344;16.790;2023-05-01T05:09:18;101173.17;;;9.13;59.06
28701;BME280;15877;52.344;16.790;2023-05-01T05:11:51;101174.45;;;9.18;59.19
28701;BME280;15877;52.344;16.790;2023-05-01T05:14:26;101171.71;;;9.24;58.64
28701;BME280;15877;52.344;16.790;2023-05-01T05:17:01;101175.08;;;9.27;58.76
28701;BME280;15877;52.344;16.790;2023-05-01T05:19:34;101176.50;;;9.32;58.80
28701;BME280;15877;52.344;16.790;2023-05-01T05:22:06;101174.36;;;9.40;58.92
28701;BME280;15877;52.344;16.790;2023-05-01T05:24:47;101171.61;;;9.46;59.41
28701;BME280;15877;52.344;16.790;2023-05-01T05:27:25;101169.54;;;9.52;59.34
28701;BME280;15877;52.344;16.790;2023-05-01T05:30:00;101168.68;;;9.59;59.42
28701;BME280;15877;52.344;16.790;2023-05-01T05:32:32;101167.59;;;9.64;59.59
28701;BME280;15877;52.344;16.790;2023-05-01T05:35:07;101168.38;;;9.72;59.29
28701;BME280;15877;52.344;16.790;2023-05-01T05:37:39;101169.87;;;9.76;59.46
28701;BME280;15877;52.344;16.790;2023-05-01T05:40:16;101165.54;;;9.85;59.20
28701;BME280;15877;52.344;16.790;2023-05-01T05:42:57;101168.50;;;9.90;59.72
28701;BME280;15877;52.344;16.790;2023-05-01T05:45:31;101166.23;;;10.00;59.80
28701;BME280;15877;52.344;16.790;2023-05-01T05:48:05;101154.42;;;9.96;59.94
28701;BME280;15877;52.344;16.790;2023-05-01T05:50:39;101168.73;;;10.10;59.55
28701;BME280;15877;52.344;16.790;2023-05-01T05:53:12;101166.06;;;10.17;59.28
28701;BME280;15877;52.344;16.790;2023-05-01T05:55:46;101164.30;;;10.23;59.73
28701;BME280;15877;52.344;16.790;2023-05-01T05:58:19;101163.78;;;10.27;59.73
28701;BME280;15877;52.344;16.790;2023-05-01T06:00:53;101162.73;;;10.35;59.92
28701;BME280;15877;52.344;16.790;2023-05-01T06:03:26;101159.11;;;10.41;60.11
28701;BME280;15877;52.344;16.790;2023-05-01T06:06:01;101158.95;;;10.52;58.68
28701;BME280;15877;52.344;16.790;2023-05-01T06:08:34;101158.11;;;10.58;58.95
28701;BME280;15877;52.344;16.790;2023-05-01T06:11:08;101158.92;;;10.68;59.06
28701;BME280;15877;52.344;16.790;2023-05-01T06:13:41;101160.04;;;10.78;59.39
28701;BME280;15877;52.344;16.790;2023-05-01T06:16:13;101153.83;;;10.82;59.21
28701;BME280;15877;52.344;16.790;2023-05-01T06:18:46;101152.16;;;10.91;59.42
28701;BME280;15877;52.344;16.790;2023-05-01T06:21:18;101146.66;;;10.99;58.68
28701;BME280;15877;52.344;16.790;2023-05-01T06:23:50;101145.84;;;11.03;58.72
28701;BME280;15877;52.344;16.790;2023-05-01T06:26:25;101147.36;;;11.11;58.26
28701;BME280;15877;52.344;16.790;2023-05-01T06:28:58;101146.30;;;11.20;57.52
28701;BME280;15877;52.344;16.790;2023-05-01T06:31:31;101143.89;;;11.27;57.69
28701;BME280;15877;52.344;16.790;2023-05-01T06:34:03;101146.85;;;11.41;57.82
28701;BME280;15877;52.344;16.790;2023-05-01T06:36:45;101142.64;;;11.54;57.90
28701;BME280;15877;52.344;16.790;2023-05-01T06:39:17;101138.11;;;11.67;57.67
28701;BME280;15877;52.344;16.790;2023-05-01T06:41:49;101136.45;;;11.72;58.00
28701;BME280;15877;52.344;16.790;2023-05-01T06:44:32;101140.20;;;11.84;58.16
28701;BME280;15877;52.344;16.790;2023-05-01T06:47:04;101138.92;;;11.90;57.98
28701;BME280;15877;52.344;16.790;2023-05-01T06:49:37;101121.27;;;11.90;57.38
28701;BME280;15877;52.344;16.790;2023-05-01T06:52:09;101135.61;;;12.08;56.48
28701;BME280;15877;52.344;16.790;2023-05-01T06:54:42;101135.36;;;12.16;56.34
28701;BME280;15877;52.344;16.790;2023-05-01T06:57:14;101129.46;;;12.22;56.24
28701;BME280;15877;52.344;16.790;2023-05-01T06:59:48;101127.91;;;12.36;56.65
28701;BME280;15877;52.344;16.790;2023-05-01T07:02:20;101126.89;;;12.49;56.70
28701;BME280;15877;52.344;16.790;2023-05-01T07:04:53;101122.85;;;12.54;56.67
28701;BME280;15877;52.344;16.790;2023-05-01T07:07:25;101122.95;;;12.57;56.00
28701;BME280;15877;52.344;16.790;2023-05-01T07:09:57;101123.41;;;12.53;53.77
28701;BME280;15877;52.344;16.790;2023-05-01T07:12:30;101127.33;;;12.61;53.07
28701;BME280;15877;52.344;16.790;2023-05-01T07:15:03;101122.34;;;12.74;53.53
28701;BME280;15877;52.344;16.790;2023-05-01T07:17:36;101116.17;;;12.86;53.13
28701;BME280;15877;52.344;16.790;2023-05-01T07:20:09;101117.29;;;12.93;53.43
28701;BME280;15877;52.344;16.790;2023-05-01T07:22:42;101112.77;;;12.96;52.02
28701;BME280;15877;52.344;16.790;2023-05-01T07:25:15;101109.71;;;13.05;52.00
28701;BME280;15877;52.344;16.790;2023-05-01T07:27:51;101115.02;;;13.07;51.41
28701;BME280;15877;52.344;16.790;2023-05-01T07:30:24;101100.23;;;13.09;50.82
28701;BME280;15877;52.344;16.790;2023-05-01T07:32:57;101109.09;;;13.24;50.25
28701;BME280;15877;52.344;16.790;2023-05-01T07:35:30;101113.90;;;13.32;49.78
28701;BME280;15877;52.344;16.790;2023-05-01T07:38:05;101109.35;;;13.36;48.42
28701;BME280;15877;52.344;16.790;2023-05-01T07:40:37;101107.46;;;13.44;48.08
28701;BME280;15877;52.344;16.790;2023-05-01T07:43:10;101104.55;;;13.54;48.13
28701;BME280;15877;52.344;16.790;2023-05-01T07:45:42;101102.58;;;13.59;46.95
28701;BME280;15877;52.344;16.790;2023-05-01T07:48:25;101105.56;;;13.68;47.06
28701;BME280;15877;52.344;16.790;2023-05-01T07:51:02;101106.30;;;13.69;47.55
28701;BME280;15877;52.344;16.790;2023-05-01T07:53:34;101100.77;;;13.81;47.70
28701;BME280;15877;52.344;16.790;2023-05-01T07:56:07;101098.54;;;13.76;47.19
28701;BME280;15877;52.344;16.790;2023-05-01T07:58:40;101096.39;;;13.84;45.97
28701;BME280;15877;52.344;16.790;2023-05-01T08:01:13;101093.59;;;13.80;45.38
28701;BME280;15877;52.344;16.790;2023-05-01T08:03:45;101085.13;;;13.93;47.20
28701;BME280;15877;52.344;16.790;2023-05-01T08:06:20;101081.58;;;14.12;46.72
28701;BME280;15877;52.344;16.790;2023-05-01T08:08:53;101083.19;;;14.25;46.03
28701;BME280;15877;52.344;16.790;2023-05-01T08:11:25;101081.25;;;14.27;46.38
28701;BME280;15877;52.344;16.790;2023-05-01T08:13:59;101067.57;;;14.22;45.72
28701;BME280;15877;52.344;16.790;2023-05-01T08:16:32;101076.77;;;14.27;45.45
28701;BME280;15877;52.344;16.790;2023-05-01T08:19:04;101074.30;;;14.42;45.04
28701;BME280;15877;52.344;16.790;2023-05-01T08:21:37;101069.23;;;14.58;46.02
28701;BME280;15877;52.344;16.790;2023-05-01T08:24:09;101067.03;;;14.61;45.99
28701;BME280;15877;52.344;16.790;2023-05-01T08:26:45;101064.24;;;14.73;46.35
28701;BME280;15877;52.344;16.790;2023-05-01T08:29:18;101070.98;;;14.79;45.96
28701;BME280;15877;52.344;16.790;2023-05-01T08:31:51;101065.76;;;14.83;44.95
28701;BME280;15877;52.344;16.790;2023-05-01T08:34:23;101061.58;;;14.82;46.26
28701;BME280;15877;52.344;16.790;2023-05-01T08:36:55;101061.85;;;14.89;45.83
28701;BME280;15877;52.344;16.790;2023-05-01T08:39:28;101052.35;;;14.89;42.54
28701;BME280;15877;52.344;16.790;2023-05-01T08:42:01;101062.52;;;14.98;41.92
28701;BME280;15877;52.344;16.790;2023-05-01T08:44:38;101059.94;;;15.12;41.70
28701;BME280;15877;52.344;16.790;2023-05-01T08:47:16;101045.73;;;15.15;42.92
28701;BME280;15877;52.344;16.790;2023-05-01T08:49:51;101061.21;;;15.29;42.69
28701;BME280;15877;52.344;16.790;2023-05-01T08:52:24;101057.98;;;15.39;42.56
28701;BME280;15877;52.344;16.790;2023-05-01T08:54:57;101042.97;;;15.40;42.20
28701;BME280;15877;52.344;16.790;2023-05-01T08:57:32;101052.11;;;15.48;42.87
28701;BME280;15877;52.344;16.790;2023-05-01T09:00:07;101051.32;;;15.48;43.21
28701;BME280;15877;52.344;16.790;2023-05-01T09:02:44;101045.25;;;15.63;43.81
28701;BME280;15877;52.344;16.790;2023-05-01T09:05:18;101044.74;;;15.76;42.89
28701;BME280;15877;52.344;16.790;2023-05-01T09:07:51;101037.80;;;15.85;41.42
28701;BME280;15877;52.344;16.790;2023-05-01T09:10:24;101033.84;;;15.89;42.54
28701;BME280;15877;52.344;16.790;2023-05-01T09:13:01;101034.00;;;15.81;43.94
28701;BME280;15877;52.344;16.790;2023-05-01T09:15:37;101028.08;;;15.90;42.81
28701;BME280;15877;52.344;16.790;2023-05-01T09:18:10;101029.02;;;15.89;43.54
28701;BME280;15877;52.344;16.790;2023-05-01T09:20:42;101023.58;;;15.89;43.55
28701;BME280;15877;52.344;16.790;2023-05-01T09:23:15;101018.02;;;16.01;43.09
28701;BME280;15877;52.344;16.790;2023-05-01T09:25:48;101016.05;;;16.24;43.12
28701;BME280;15877;52.344;16.790;2023-05-01T09:28:39;101015.75;;;16.36;42.64
28701;BME280;15877;52.344;16.790;2023-05-01T09:31:25;101015.80;;;16.42;42.56
28701;BME280;15877;52.344;16.790;2023-05-01T09:34:00;101013.63;;;16.60;41.48
28701;BME280;15877;52.344;16.790;2023-05-01T09:36:34;101001.95;;;16.64;41.52
28701;BME280;15877;52.344;16.790;2023-05-01T09:39:07;101009.60;;;16.69;42.56
28701;BME280;15877;52.344;16.790;2023-05-01T09:41:51;101013.63;;;16.71;41.18
28701;BME280;15877;52.344;16.790;2023-05-01T09:44:23;101005.32;;;16.76;40.84
28701;BME280;15877;52.344;16.790;2023-05-01T09:46:56;101007.25;;;16.91;40.89
28701;BME280;15877;52.344;16.790;2023-05-01T09:49:46;101005.10;;;16.95;40.88
28701;BME280;15877;52.344;16.790;2023-05-01T09:52:20;100995.15;;;17.08;41.21
28701;BME280;15877;52.344;16.790;2023-05-01T09:55:12;100989.75;;;17.24;41.51
28701;BME280;15877;52.344;16.790;2023-05-01T09:57:45;100991.66;;;17.41;40.56
28701;BME280;15877;52.344;16.790;2023-05-01T10:00:18;100991.33;;;17.56;40.72
28701;BME280;15877;52.344;16.790;2023-05-01T10:02:52;100990.05;;;17.58;39.14
28701;BME280;15877;52.344;16.790;2023-05-01T10:05:25;100987.27;;;17.72;39.66
28701;BME280;15877;52.344;16.790;2023-05-01T10:07:59;100986.64;;;17.80;38.87
28701;BME280;15877;52.344;16.790;2023-05-01T10:10:34;100985.77;;;17.85;38.73
28701;BME280;15877;52.344;16.790;2023-05-01T10:13:15;100984.80;;;17.95;37.08
28701;BME280;15877;52.344;16.790;2023-05-01T10:15:48;100986.75;;;18.01;36.94
28701;BME280;15877;52.344;16.790;2023-05-01T10:18:21;100983.92;;;18.16;38.13
28701;BME280;15877;52.344;16.790;2023-05-01T10:20:54;100977.66;;;18.21;37.35
28701;BME280;15877;52.344;16.790;2023-05-01T10:23:27;100974.60;;;18.34;37.09
28701;BME280;15877;52.344;16.790;2023-05-01T10:26:01;100962.06;;;18.38;37.27
28701;BME280;15877;52.344;16.790;2023-05-01T10:28:37;100958.21;;;18.41;36.16
28701;BME280;15877;52.344;16.790;2023-05-01T10:31:10;100939.33;;;18.44;37.24
28701;BME280;15877;52.344;16.790;2023-05-01T10:33:44;100949.17;;;18.64;37.72
28701;BME280;15877;52.344;16.790;2023-05-01T10:36:20;100943.02;;;18.75;36.83
28701;BME280;15877;52.344;16.790;2023-05-01T10:38:54;100947.40;;;18.90;37.89
28701;BME280;15877;52.344;16.790;2023-05-01T10:42:02;100942.03;;;19.05;38.42
28701;BME280;15877;52.344;16.790;2023-05-01T10:44:41;100937.64;;;19.14;37.33
28701;BME280;15877;52.344;16.790;2023-05-01T10:47:47;100935.02;;;19.26;37.22
28701;BME280;15877;52.344;16.790;2023-05-01T10:50:19;100928.66;;;19.24;34.93
28701;BME280;15877;52.344;16.790;2023-05-01T10:53:17;100929.91;;;19.35;35.94
28701;BME280;15877;52.344;16.790;2023-05-01T10:55:50;100928.55;;;19.45;36.04
28701;BME280;15877;52.344;16.790;2023-05-01T10:58:55;100926.21;;;19.58;35.75
28701;BME280;15877;52.344;16.790;2023-05-01T11:01:32;100922.89;;;19.52;36.07
28701;BME280;15877;52.344;16.790;2023-05-01T11:04:06;100917.02;;;19.61;35.59
28701;BME280;15877;52.344;16.790;2023-05-01T11:07:14;100911.84;;;19.66;36.01
28701;BME280;15877;52.344;16.790;2023-05-01T11:09:48;100906.13;;;19.73;34.66
28701;BME280;15877;52.344;16.790;2023-05-01T11:12:53;100907.37;;;19.81;34.34
28701;BME280;15877;52.344;16.790;2023-05-01T11:15:32;100895.80;;;19.87;34.55
28701;BME280;15877;52.344;16.790;2023-05-01T11:18:04;100891.98;;;19.90;34.88
28701;BME280;15877;52.344;16.790;2023-05-01T11:20:50;100886.45;;;19.96;34.16
28701;BME280;15877;52.344;16.790;2023-05-01T11:23:23;100889.90;;;19.98;33.45
28701;BME280;15877;52.344;16.790;2023-05-01T11:26:03;100887.98;;;19.94;33.65
28701;BME280;15877;52.344;16.790;2023-05-01T11:28:38;100889.42;;;19.95;33.96
28701;BME280;15877;52.344;16.790;2023-05-01T11:31:11;100881.35;;;19.90;34.16
28701;BME280;15877;52.344;16.790;2023-05-01T11:33:48;100882.95;;;19.98;33.60
28701;BME280;15877;52.344;16.790;2023-05-01T11:36:20;100865.95;;;20.09;34.06
28701;BME280;15877;52.344;16.790;2023-05-01T11:38:54;100869.79;;;20.22;33.06
28701;BME280;15877;52.344;16.790;2023-05-01T11:41:28;100868.08;;;20.39;33.05
28701;BME280;15877;52.344;16.790;2023-05-01T11:48:15;100855.45;;;20.62;33.32
28701;BME280;15877;52.344;16.790;2023-05-01T11:50:48;100855.60;;;20.76;32.79
28701;BME280;15877;52.344;16.790;2023-05-01T11:53:20;100850.12;;;20.82;32.76
28701;BME280;15877;52.344;16.790;2023-05-01T11:55:53;100842.08;;;20.91;33.74
28701;BME280;15877;52.344;16.790;2023-05-01T11:58:35;100843.31;;;20.96;32.48
28701;BME280;15877;52.344;16.790;2023-05-01T12:01:08;100831.77;;;20.91;33.52
28701;BME280;15877;52.344;16.790;2023-05-01T12:03:43;100832.73;;;21.05;33.76
28701;BME280;15877;52.344;16.790;2023-05-01T12:06:18;100837.56;;;21.16;33.56
28701;BME280;15877;52.344;16.790;2023-05-01T12:08:51;100820.76;;;21.16;35.19
28701;BME280;15877;52.344;16.790;2023-05-01T12:11:23;100826.11;;;21.26;33.82
28701;BME280;15877;52.344;16.790;2023-05-01T12:13:57;100824.21;;;21.33;33.99
28701;BME280;15877;52.344;16.790;2023-05-01T12:16:30;100802.79;;;21.30;35.12
28701;BME280;15877;52.344;16.790;2023-05-01T12:19:03;100814.07;;;21.41;34.33
28701;BME280;15877;52.344;16.790;2023-05-01T12:21:36;100812.91;;;21.52;32.45
28701;BME280;15877;52.344;16.790;2023-05-01T12:24:10;100811.81;;;21.56;31.53
28701;BME280;15877;52.344;16.790;2023-05-01T12:26:43;100806.50;;;21.59;32.32
28701;BME280;15877;52.344;16.790;2023-05-01T12:29:15;100811.89;;;21.60;32.58
28701;BME280;15877;52.344;16.790;2023-05-01T12:31:48;100804.52;;;21.70;32.34
28701;BME280;15877;52.344;16.790;2023-05-01T12:34:29;100793.89;;;21.74;32.57
28701;BME280;15877;52.344;16.790;2023-05-01T12:37:03;100789.33;;;21.82;33.05
28701;BME280;15877;52.344;16.790;2023-05-01T12:39:39;100768.77;;;21.75;31.32
28701;BME280;15877;52.344;16.790;2023-05-01T12:42:16;100764.95;;;21.76;30.40
28701;BME280;15877;52.344;16.790;2023-05-01T12:44:49;100768.38;;;21.83;30.55
28701;BME280;15877;52.344;16.790;2023-05-01T12:47:36;100761.80;;;21.89;30.73
28701;BME280;15877;52.344;16.790;2023-05-01T12:50:12;100758.80;;;21.94;31.26
28701;BME280;15877;52.344;16.790;2023-05-01T12:52:45;100754.30;;;21.93;33.07
28701;BME280;15877;52.344;16.790;2023-05-01T12:55:17;100756.87;;;21.89;32.27
28701;BME280;15877;52.344;16.790;2023-05-01T12:57:53;100750.44;;;21.84;30.48
28701;BME280;15877;52.344;16.790;2023-05-01T13:00:26;100743.24;;;21.78;30.47
28701;BME280;15877;52.344;16.790;2023-05-01T13:03:03;100739.44;;;21.73;30.96
28701;BME280;15877;52.344;16.790;2023-05-01T13:05:36;100727.09;;;21.68;31.95
28701;BME280;15877;52.344;16.790;2023-05-01T13:08:26;100734.88;;;21.71;30.71
28701;BME280;15877;52.344;16.790;2023-05-01T13:11:00;100730.65;;;21.72;31.77
28701;BME280;15877;52.344;16.790;2023-05-01T13:13:34;100726.58;;;21.61;31.03
28701;BME280;15877;52.344;16.790;2023-05-01T13:16:10;100724.07;;;21.57;31.63
28701;BME280;15877;52.344;16.790;2023-05-01T13:18:48;100723.74;;;21.52;32.05
28701;BME280;15877;52.344;16.790;2023-05-01T13:21:22;100726.90;;;21.43;31.45
28701;BME280;15877;52.344;16.790;2023-05-01T13:23:56;100710.55;;;21.31;31.20
28701;BME280;15877;52.344;16.790;2023-05-01T13:26:30;100713.27;;;21.51;32.78
28701;BME280;15877;52.344;16.790;2023-05-01T13:29:04;100701.74;;;21.58;32.95
28701;BME280;15877;52.344;16.790;2023-05-01T13:31:37;100697.56;;;21.53;32.34